Time;durP1;ratioP1;P1;durP2;ratioP2;P2;SDS_P1;SDS_P2;PMS_P1;PMS_P2;Temp;Humidity;BMP_temperature;BMP_pressure;BME280_temperature;BME280_humidity;BME280_pressure;Samples;Min_cycle;Max_cycle;Signal;HPM_P1;HPM_P2
2022/05/19 00:00:22;;;;;;;19.17;10.25;;;;;;;;;;5063414;28;20101;-78
2022/05/19 00:02:49;;;;;;;15.93;10.50;;;;;;;;;;5058913;28;20077;-78
2022/05/19 00:05:15;;;;;;;16.35;10.85;;;;;;;;;;5068166;28;20104;-77
2022/05/19 00:07:41;;;;;;;20.70;11.07;;;;;;;;;;5067226;28;20988;-78
2022/05/19 00:10:08;;;;;;;15.35;10.98;;;;;;;;;;5071219;28;20498;-78
2022/05/19 00:12:35;;;;;;;18.08;10.80;;;;;;;;;;5069660;28;20178;-78
2022/05/19 00:15:03;;;;;;;19.08;10.98;;;;;;;;;;5057393;28;20071;-78
2022/05/19 00:17:30;;;;;;;17.85;11.73;;;;;;;;;;5065140;28;20076;-77
2022/05/19 00:19:56;;;;;;;17.40;11.15;;;;;;;;;;5070450;28;20045;-78
2022/05/19 00:22:22;;;;;;;19.88;12.57;;;;;;;;;;5068301;28;20147;-78
2022/05/19 00:24:49;;;;;;;16.40;10.45;;;;;;;;;;5072189;28;21265;-78
2022/05/19 00:27:15;;;;;;;16.13;11.57;;;;;;;;;;5051885;28;20063;-78
2022/05/19 00:29:42;;;;;;;22.83;11.85;;;;;;;;;;5070184;28;20144;-79
2022/05/19 00:32:08;;;;;;;17.95;12.32;;;;;;;;;;5072655;28;20132;-78
2022/05/19 00:34:34;;;;;;;16.80;11.65;;;;;;;;;;5074551;28;20092;-78
2022/05/19 00:37:02;;;;;;;17.42;11.40;;;;;;;;;;5072717;28;20148;-78
2022/05/19 00:39:28;;;;;;;25.10;13.52;;;;;;;;;;5071055;28;20061;-78
2022/05/19 00:44:41;;;;;;;18.80;12.55;;;;;;;;;;5063553;28;20152;-77
2022/05/19 00:47:11;;;;;;;18.38;12.90;;;;;;;;;;5050385;28;20136;-78
2022/05/19 00:49:40;;;;;;;18.83;12.63;;;;;;;;;;5050623;28;20041;-77
2022/05/19 00:52:18;;;;;;;18.67;12.73;;;;;;;;;;5055442;28;20059;-78
2022/05/19 00:54:47;;;;;;;23.58;13.35;;;;;;;;;;5071054;28;20061;-78
2022/05/19 00:57:16;;;;;;;21.77;12.98;;;;;;;;;;5071510;28;20132;-78
2022/05/19 00:59:45;;;;;;;19.95;13.02;;;;;;;;;;5060353;28;20153;-78
2022/05/19 01:02:13;;;;;;;22.45;12.90;;;;;;;;;;5068009;28;20051;-79
2022/05/19 01:04:45;;;;;;;22.55;13.90;;;;;;;;;;5068573;28;20045;-78
2022/05/19 01:07:17;;;;;;;18.63;13.43;;;;;;;;;;5070341;28;20555;-80
2022/05/19 01:09:44;;;;;;;21.83;13.95;;;;;;;;;;5069575;28;20061;-80
2022/05/19 01:12:10;;;;;;;21.13;13.32;;;;;;;;;;5069426;28;20410;-79
2022/05/19 01:14:37;;;;;;;23.23;14.02;;;;;;;;;;5069888;28;20057;-76
2022/05/19 01:17:05;;;;;;;22.63;14.23;;;;;;;;;;5070873;28;20852;-79
2022/05/19 01:19:40;;;;;;;20.85;14.00;;;;;;;;;;5069072;28;20795;-75
2022/05/19 01:22:30;;;;;;;22.13;14.10;;;;;;;;;;5067922;28;20087;-80
2022/05/19 01:25:02;;;;;;;21.65;14.27;;;;;;;;;;5071357;28;20152;-78
2022/05/19 01:27:29;;;;;;;22.80;14.63;;;;;;;;;;5070219;28;20037;-79
2022/05/19 01:29:55;;;;;;;21.55;14.48;;;;;;;;;;5069581;28;20057;-80
2022/05/19 01:32:23;;;;;;;21.20;15.13;;;;;;;;;;5067995;28;20352;-80
2022/05/19 01:34:49;;;;;;;24.08;15.55;;;;;;;;;;5069055;28;20771;-79
2022/05/19 01:37:15;;;;;;;22.02;15.43;;;;;;;;;;5068809;28;20152;-76
2022/05/19 01:39:44;;;;;;;21.30;14.63;;;;;;;;;;5068791;28;20055;-80
2022/05/19 01:42:24;;;;;;;22.52;16.08;;;;;;;;;;5065112;28;20059;-75
2022/05/19 01:44:53;;;;;;;24.42;16.35;;;;;;;;;;5064152;28;20056;-75
2022/05/19 01:47:38;;;;;;;21.58;15.13;;;;;;;;;;5065914;28;20148;-78
2022/05/19 01:50:11;;;;;;;26.38;16.40;;;;;;;;;;5063877;28;20152;-77
2022/05/19 01:52:44;;;;;;;24.20;16.45;;;;;;;;;;5058978;28;20575;-77
2022/05/19 01:55:21;;;;;;;26.52;16.25;;;;;;;;;;5063464;28;20057;-79
2022/05/19 01:57:51;;;;;;;25.60;15.93;;;;;;;;;;5063872;28;20067;-77
2022/05/19 02:00:22;;;;;;;23.58;15.95;;;;;;;;;;5063206;28;20144;-76
2022/05/19 02:03:04;;;;;;;22.52;15.20;;;;;;;;;;5061095;28;20136;-79
2022/05/19 02:05:40;;;;;;;23.02;15.48;;;;;;;;;;5062371;28;20136;-77
2022/05/19 02:08:11;;;;;;;21.67;14.93;;;;;;;;;;5063902;28;20528;-78
2022/05/19 02:10:41;;;;;;;23.30;15.85;;;;;;;;;;5061472;28;20528;-76
2022/05/19 02:13:08;;;;;;;23.13;14.75;;;;;;;;;;5058686;28;20055;-79
2022/05/19 02:15:37;;;;;;;24.17;16.83;;;;;;;;;;5046730;28;20045;-79
2022/05/19 02:18:04;;;;;;;22.80;16.17;;;;;;;;;;5043688;28;20056;-76
2022/05/19 02:20:31;;;;;;;25.17;15.95;;;;;;;;;;5056956;28;20067;-78
2022/05/19 02:22:58;;;;;;;23.33;16.77;;;;;;;;;;5061411;28;20037;-77
2022/05/19 02:25:30;;;;;;;29.17;16.73;;;;;;;;;;5065096;28;20069;-77
2022/05/19 02:27:57;;;;;;;26.58;17.33;;;;;;;;;;5064375;28;20053;-76
2022/05/19 02:30:24;;;;;;;26.58;17.60;;;;;;;;;;5062621;28;20059;-76
2022/05/19 02:32:51;;;;;;;24.23;17.77;;;;;;;;;;5062294;28;20144;-77
2022/05/19 02:35:18;;;;;;;27.05;17.33;;;;;;;;;;5064052;28;20055;-77
2022/05/19 02:37:44;;;;;;;24.80;16.90;;;;;;;;;;5063910;28;20061;-77
2022/05/19 02:40:12;;;;;;;27.30;16.90;;;;;;;;;;5066288;28;20202;-77
2022/05/19 02:42:39;;;;;;;24.38;17.80;;;;;;;;;;5060156;28;20080;-78
2022/05/19 02:45:05;;;;;;;28.45;17.90;;;;;;;;;;5052665;28;20966;-78
2022/05/19 02:47:32;;;;;;;25.92;17.33;;;;;;;;;;5063082;28;20134;-78
2022/05/19 02:49:58;;;;;;;26.02;17.63;;;;;;;;;;5063398;28;20041;-77
2022/05/19 02:52:24;;;;;;;26.60;17.05;;;;;;;;;;5062966;28;20908;-76
2022/05/19 02:54:50;;;;;;;28.05;17.27;;;;;;;;;;5064322;28;20670;-76
2022/05/19 02:57:17;;;;;;;24.98;16.30;;;;;;;;;;5060960;28;20600;-79
2022/05/19 02:59:43;;;;;;;27.63;19.33;;;;;;;;;;5054445;28;20053;-76
2022/05/19 03:02:10;;;;;;;28.17;18.98;;;;;;;;;;5058354;28;20169;-76
2022/05/19 03:04:36;;;;;;;30.73;20.60;;;;;;;;;;5064902;28;20561;-78
2022/05/19 03:07:03;;;;;;;30.35;19.40;;;;;;;;;;5063586;28;20063;-78
2022/05/19 03:09:29;;;;;;;29.98;18.95;;;;;;;;;;5065467;28;20441;-76
2022/05/19 03:11:55;;;;;;;28.33;19.42;;;;;;;;;;5062678;28;20056;-76
2022/05/19 03:14:22;;;;;;;40.20;22.55;;;;;;;;;;5063247;28;20057;-78
2022/05/19 03:16:48;;;;;;;33.92;21.83;;;;;;;;;;5067859;28;20096;-78
2022/05/19 03:19:15;;;;;;;32.47;23.33;;;;;;;;;;5051813;28;20804;-79
2022/05/19 03:21:42;;;;;;;37.22;23.02;;;;;;;;;;5047931;28;21008;-77
2022/05/19 03:24:09;;;;;;;26.83;18.30;;;;;;;;;;5061892;28;20079;-76
2022/05/19 03:26:35;;;;;;;26.65;14.90;;;;;;;;;;5061782;28;20052;-77
2022/05/19 03:29:03;;;;;;;20.33;13.73;;;;;;;;;;5067990;28;20041;-77
2022/05/19 03:31:29;;;;;;;20.55;12.07;;;;;;;;;;5067806;28;20056;-75
2022/05/19 03:33:56;;;;;;;16.08;9.30;;;;;;;;;;5069296;28;20075;-75
2022/05/19 03:36:22;;;;;;;11.80;7.00;;;;;;;;;;5081172;28;20143;-76
2022/05/19 03:38:48;;;;;;;12.63;6.90;;;;;;;;;;5069208;28;20144;-77
2022/05/19 03:41:15;;;;;;;12.10;5.78;;;;;;;;;;5067972;28;20099;-73
2022/05/19 03:43:41;;;;;;;9.50;4.60;;;;;;;;;;5067117;28;20107;-75
2022/05/19 03:46:07;;;;;;;7.85;3.75;;;;;;;;;;5065555;28;20498;-75
2022/05/19 03:48:35;;;;;;;8.50;3.22;;;;;;;;;;5067650;28;20058;-74
2022/05/19 03:51:02;;;;;;;8.32;3.38;;;;;;;;;;5048878;28;20152;-73
2022/05/19 03:53:28;;;;;;;5.47;2.60;;;;;;;;;;5063838;28;20052;-76
2022/05/19 03:55:55;;;;;;;6.75;2.80;;;;;;;;;;5068029;28;20033;-76
2022/05/19 03:58:21;;;;;;;6.35;2.40;;;;;;;;;;5068946;28;20190;-76
2022/05/19 04:00:48;;;;;;;5.97;2.17;;;;;;;;;;5049205;28;20532;-73
2022/05/19 04:03:14;;;;;;;5.90;2.20;;;;;;;;;;5059540;28;20061;-76
2022/05/19 04:05:41;;;;;;;5.93;1.70;;;;;;;;;;5065054;28;20614;-74
2022/05/19 04:08:07;;;;;;;5.28;2.00;;;;;;;;;;5067018;28;20056;-77
2022/05/19 04:10:34;;;;;;;5.25;2.08;;;;;;;;;;5066075;28;20052;-77
2022/05/19 04:13:00;;;;;;;5.93;2.00;;;;;;;;;;5066593;28;20942;-77
2022/05/19 04:15:26;;;;;;;4.00;1.75;;;;;;;;;;5062870;28;20084;-73
2022/05/19 04:17:53;;;;;;;5.10;2.30;;;;;;;;;;5046886;28;20056;-76
2022/05/19 04:20:19;;;;;;;4.35;2.33;;;;;;;;;;5047775;28;20963;-76
2022/05/19 04:22:45;;;;;;;7.60;2.75;;;;;;;;;;5064777;28;20061;-76
2022/05/19 04:25:12;;;;;;;7.85;2.53;;;;;;;;;;5064410;28;20056;-76
2022/05/19 04:27:38;;;;;;;6.53;2.40;;;;;;;;;;5043485;28;20053;-76
2022/05/19 04:30:05;;;;;;;5.18;2.50;;;;;;;;;;5053956;28;20057;-76
2022/05/19 04:32:39;;;;;;;6.80;2.20;;;;;;;;;;5064748;28;20060;-74
2022/05/19 04:35:05;;;;;;;6.53;2.50;;;;;;;;;;5064134;28;20060;-77
2022/05/19 04:37:32;;;;;;;9.85;2.85;;;;;;;;;;5067886;28;20088;-73
2022/05/19 04:40:01;;;;;;;6.95;2.47;;;;;;;;;;5060078;28;20072;-73
2022/05/19 04:42:28;;;;;;;6.87;2.60;;;;;;;;;;5059441;28;20069;-74
2022/05/19 04:44:54;;;;;;;9.43;3.60;;;;;;;;;;5061479;28;20061;-75
2022/05/19 04:47:21;;;;;;;10.10;2.80;;;;;;;;;;5064770;28;20060;-73
2022/05/19 04:49:47;;;;;;;14.15;3.72;;;;;;;;;;5060691;28;20053;-75
2022/05/19 04:52:14;;;;;;;21.58;5.03;;;;;;;;;;5064806;28;20045;-75
2022/05/19 04:54:40;;;;;;;9.25;3.38;;;;;;;;;;5065907;28;20585;-76
2022/05/19 04:57:07;;;;;;;9.15;3.38;;;;;;;;;;5065663;28;20085;-75
2022/05/19 04:59:37;;;;;;;7.47;3.00;;;;;;;;;;5062171;28;20061;-74
2022/05/19 05:02:04;;;;;;;8.63;3.47;;;;;;;;;;5064994;28;20129;-73
2022/05/19 05:04:30;;;;;;;10.55;3.80;;;;;;;;;;5064589;28;20200;-75
2022/05/19 05:06:57;;;;;;;11.32;4.05;;;;;;;;;;5064473;28;20132;-75
2022/05/19 05:09:23;;;;;;;11.27;3.88;;;;;;;;;;5079933;28;20052;-75
2022/05/19 05:11:50;;;;;;;15.00;4.65;;;;;;;;;;5065234;28;20583;-73
2022/05/19 05:14:17;;;;;;;16.30;4.15;;;;;;;;;;5063649;28;20049;-76
2022/05/19 05:16:48;;;;;;;10.73;4.15;;;;;;;;;;5062393;28;20138;-73
2022/05/19 05:19:18;;;;;;;10.40;3.70;;;;;;;;;;5061866;28;20064;-74
2022/05/19 05:21:45;;;;;;;16.02;3.67;;;;;;;;;;5062805;28;20057;-77
2022/05/19 05:24:11;;;;;;;8.90;4.10;;;;;;;;;;5063827;28;20049;-77
2022/05/19 05:26:38;;;;;;;9.38;4.30;;;;;;;;;;5060625;28;20053;-75
2022/05/19 05:29:04;;;;;;;8.75;4.07;;;;;;;;;;5063788;28;20080;-75
2022/05/19 05:31:30;;;;;;;10.20;4.30;;;;;;;;;;5062098;28;20539;-77
2022/05/19 05:33:57;;;;;;;9.75;4.32;;;;;;;;;;5058788;28;20100;-75
2022/05/19 05:36:23;;;;;;;7.10;3.80;;;;;;;;;;5044781;28;20144;-76
2022/05/19 05:38:49;;;;;;;8.27;4.32;;;;;;;;;;5074773;28;20517;-76
2022/05/19 05:41:16;;;;;;;12.77;4.20;;;;;;;;;;5068832;28;20061;-74
2022/05/19 05:43:42;;;;;;;7.97;4.13;;;;;;;;;;5063789;28;20052;-77
2022/05/19 05:46:10;;;;;;;9.02;4.00;;;;;;;;;;5062737;28;20567;-77
2022/05/19 05:48:36;;;;;;;7.68;4.00;;;;;;;;;;5061642;28;20421;-77
2022/05/19 05:51:04;;;;;;;9.27;4.47;;;;;;;;;;5055977;28;20064;-77
2022/05/19 05:53:31;;;;;;;8.32;4.32;;;;;;;;;;5062151;28;20049;-77
2022/05/19 05:55:57;;;;;;;9.85;3.92;;;;;;;;;;5061218;28;20141;-77
2022/05/19 05:58:23;;;;;;;7.28;4.22;;;;;;;;;;5060409;28;20053;-76
2022/05/19 06:00:50;;;;;;;7.93;3.72;;;;;;;;;;5060920;28;20141;-76
2022/05/19 06:03:16;;;;;;;10.48;3.72;;;;;;;;;;5059868;28;20512;-75
2022/05/19 06:05:42;;;;;;;6.90;3.88;;;;;;;;;;5057771;28;20053;-73
2022/05/19 06:08:09;;;;;;;7.40;3.97;;;;;;;;;;5061116;28;20589;-74
2022/05/19 06:10:36;;;;;;;9.60;4.20;;;;;;;;;;5046113;28;20152;-77
2022/05/19 06:13:03;;;;;;;6.38;3.83;;;;;;;;;;5069585;28;20148;-77
2022/05/19 06:15:29;;;;;;;8.05;4.20;;;;;;;;;;5065191;28;20060;-73
2022/05/19 06:17:55;;;;;;;8.63;3.92;;;;;;;;;;5062051;28;20057;-76
2022/05/19 06:20:23;;;;;;;6.22;4.07;;;;;;;;;;5061048;28;20140;-77
2022/05/19 06:22:50;;;;;;;8.38;4.00;;;;;;;;;;5061137;28;20100;-74
2022/05/19 06:25:18;;;;;;;7.68;3.88;;;;;;;;;;5063744;28;20055;-76
2022/05/19 06:27:45;;;;;;;6.22;3.65;;;;;;;;;;5061734;28;20132;-73
2022/05/19 06:30:12;;;;;;;6.45;3.47;;;;;;;;;;5062102;28;20053;-75
2022/05/19 06:32:40;;;;;;;5.80;3.42;;;;;;;;;;5061685;28;20513;-75
2022/05/19 06:35:07;;;;;;;7.00;3.90;;;;;;;;;;5063131;28;20190;-74
2022/05/19 06:37:33;;;;;;;5.55;3.10;;;;;;;;;;5065824;28;20081;-77
2022/05/19 06:40:00;;;;;;;6.20;3.70;;;;;;;;;;5072203;28;20052;-76
2022/05/19 06:42:26;;;;;;;7.45;4.18;;;;;;;;;;5059808;28;20056;-75
2022/05/19 06:44:53;;;;;;;7.22;3.63;;;;;;;;;;5067349;28;20531;-74
2022/05/19 06:47:19;;;;;;;8.80;4.20;;;;;;;;;;5072206;28;20049;-76
2022/05/19 06:49:46;;;;;;;6.90;3.78;;;;;;;;;;5064796;28;20056;-73
2022/05/19 06:52:14;;;;;;;7.90;4.22;;;;;;;;;;5065163;28;20053;-76
2022/05/19 06:54:44;;;;;;;6.65;4.22;;;;;;;;;;5061993;28;20160;-75
2022/05/19 06:57:10;;;;;;;6.82;3.80;;;;;;;;;;5060659;28;20142;-73
2022/05/19 06:59:37;;;;;;;7.15;4.22;;;;;;;;;;5061708;28;20060;-75
2022/05/19 07:02:04;;;;;;;8.07;4.10;;;;;;;;;;5063507;28;20132;-75
2022/05/19 07:04:32;;;;;;;7.85;4.50;;;;;;;;;;5061749;28;20056;-75
2022/05/19 07:06:59;;;;;;;8.35;4.15;;;;;;;;;;5061453;28;20136;-73
2022/05/19 07:09:26;;;;;;;5.90;3.95;;;;;;;;;;5051324;28;20065;-74
2022/05/19 07:11:53;;;;;;;8.35;4.53;;;;;;;;;;5058298;28;20056;-72
2022/05/19 07:14:19;;;;;;;10.45;4.55;;;;;;;;;;5057368;28;20048;-74
2022/05/19 07:16:48;;;;;;;6.97;4.40;;;;;;;;;;5053193;28;20816;-75
2022/05/19 07:22:00;;;;;;;8.32;4.53;;;;;;;;;;5049345;28;20124;-75
2022/05/19 07:24:26;;;;;;;7.38;4.95;;;;;;;;;;5058340;28;20080;-73
2022/05/19 07:26:54;;;;;;;6.47;4.32;;;;;;;;;;5060484;28;20136;-73
2022/05/19 07:29:21;;;;;;;6.07;4.03;;;;;;;;;;5050525;28;20140;-74
2022/05/19 07:31:49;;;;;;;6.55;4.30;;;;;;;;;;5062550;28;20545;-75
2022/05/19 07:34:17;;;;;;;7.82;4.40;;;;;;;;;;5054060;28;20652;-75
2022/05/19 07:36:43;;;;;;;7.93;4.95;;;;;;;;;;5062307;28;20440;-75
2022/05/19 07:39:11;;;;;;;7.65;4.53;;;;;;;;;;5057679;28;20060;-73
2022/05/19 07:41:38;;;;;;;6.70;4.03;;;;;;;;;;5060729;28;20533;-72
2022/05/19 07:44:06;;;;;;;5.80;3.47;;;;;;;;;;5060745;28;20509;-74
2022/05/19 07:46:33;;;;;;;6.30;3.50;;;;;;;;;;5062485;28;20240;-75
2022/05/19 07:48:59;;;;;;;6.43;3.67;;;;;;;;;;5059914;28;20103;-75
2022/05/19 07:51:36;;;;;;;6.95;3.88;;;;;;;;;;5061230;28;20060;-75
2022/05/19 07:54:07;;;;;;;5.70;3.00;;;;;;;;;;5051930;28;20084;-72
2022/05/19 07:56:34;;;;;;;7.32;3.40;;;;;;;;;;5042040;28;20502;-75
2022/05/19 07:59:01;;;;;;;7.90;3.38;;;;;;;;;;5051412;28;20801;-75
2022/05/19 08:01:29;;;;;;;5.50;3.55;;;;;;;;;;5061034;28;20509;-75
2022/05/19 08:03:56;;;;;;;6.00;3.80;;;;;;;;;;5056746;28;20057;-76
2022/05/19 08:06:23;;;;;;;8.40;4.10;;;;;;;;;;5066951;28;20545;-72
2022/05/19 08:08:50;;;;;;;6.43;3.45;;;;;;;;;;5066453;28;20476;-74
2022/05/19 08:11:16;;;;;;;6.43;3.30;;;;;;;;;;5067439;28;20188;-74
2022/05/19 08:16:28;;;;;;;8.75;3.50;;;;;;;;;;5066868;28;20056;-73
2022/05/19 08:18:55;;;;;;;6.03;3.67;;;;;;;;;;5065237;28;20136;-73
2022/05/19 08:21:21;;;;;;;5.15;2.88;;;;;;;;;;5065525;28;20768;-76
2022/05/19 08:23:50;;;;;;;7.15;3.38;;;;;;;;;;5059383;28;20053;-76
2022/05/19 08:26:17;;;;;;;6.00;3.33;;;;;;;;;;5063771;28;20094;-75
2022/05/19 08:28:44;;;;;;;6.57;3.72;;;;;;;;;;5065866;28;20140;-76
2022/05/19 08:31:12;;;;;;;7.13;3.85;;;;;;;;;;5064810;28;20131;-74
2022/05/19 08:33:39;;;;;;;6.57;3.67;;;;;;;;;;5063587;28;20139;-74
2022/05/19 08:36:05;;;;;;;6.60;3.60;;;;;;;;;;5061550;28;20052;-76
2022/05/19 08:38:32;;;;;;;6.22;3.53;;;;;;;;;;5066141;28;20111;-76
2022/05/19 08:41:17;;;;;;;6.63;3.50;;;;;;;;;;5060176;28;20860;-73
2022/05/19 08:43:59;;;;;;;6.15;3.38;;;;;;;;;;5044229;28;21182;-75
2022/05/19 08:46:28;;;;;;;8.02;3.80;;;;;;;;;;5055470;28;20598;-74
2022/05/19 08:48:59;;;;;;;5.68;3.42;;;;;;;;;;5062697;28;20899;-76
2022/05/19 08:51:29;;;;;;;5.32;3.40;;;;;;;;;;5065129;28;20130;-75
2022/05/19 08:53:57;;;;;;;6.93;3.70;;;;;;;;;;5061294;28;20964;-76
2022/05/19 08:56:39;;;;;;;5.80;3.60;;;;;;;;;;5042735;28;20514;-74
2022/05/19 08:59:24;;;;;;;6.15;3.45;;;;;;;;;;5052521;28;20140;-76
2022/05/19 09:01:56;;;;;;;6.20;3.63;;;;;;;;;;5065192;28;20117;-75
2022/05/19 09:04:36;;;;;;;5.70;3.55;;;;;;;;;;5058846;28;20088;-76
2022/05/19 09:10:04;;;;;;;6.40;4.05;;;;;;;;;;5044987;28;20088;-73
2022/05/19 09:12:34;;;;;;;5.75;3.75;;;;;;;;;;5044125;28;20064;-75
2022/05/19 09:15:02;;;;;;;6.53;4.35;;;;;;;;;;5044651;28;20053;-74
2022/05/19 09:17:30;;;;;;;8.25;4.28;;;;;;;;;;5048589;28;20580;-75
2022/05/19 09:19:59;;;;;;;7.03;4.78;;;;;;;;;;5064946;28;20825;-76
2022/05/19 09:22:29;;;;;;;8.55;4.30;;;;;;;;;;5061218;28;20075;-76
2022/05/19 09:24:55;;;;;;;7.83;4.77;;;;;;;;;;5061735;28;20093;-75
2022/05/19 09:27:22;;;;;;;9.50;4.57;;;;;;;;;;5064065;28;20363;-75
2022/05/19 09:29:51;;;;;;;6.97;4.28;;;;;;;;;;5063380;28;20057;-75
2022/05/19 09:32:22;;;;;;;8.77;4.55;;;;;;;;;;5054547;28;20189;-73
2022/05/19 09:34:50;;;;;;;6.72;4.65;;;;;;;;;;5058528;28;20132;-75
2022/05/19 09:37:36;;;;;;;7.25;4.80;;;;;;;;;;5063200;28;20143;-74
2022/05/19 09:40:12;;;;;;;8.38;4.82;;;;;;;;;;5053831;28;20061;-75
2022/05/19 09:43:09;;;;;;;13.32;6.72;;;;;;;;;;5057686;28;20089;-74
2022/05/19 09:45:37;;;;;;;8.48;5.32;;;;;;;;;;5044474;28;20064;-75
2022/05/19 09:48:05;;;;;;;19.80;9.15;;;;;;;;;;5043188;28;20063;-75
2022/05/19 09:50:37;;;;;;;15.40;6.57;;;;;;;;;;5063468;28;20316;-75
2022/05/19 09:53:05;;;;;;;12.57;6.82;;;;;;;;;;5063773;28;20057;-75
2022/05/19 09:55:32;;;;;;;10.13;5.45;;;;;;;;;;5059791;28;20516;-75
2022/05/19 09:58:00;;;;;;;11.88;6.50;;;;;;;;;;5044950;28;20084;-74
2022/05/19 10:00:37;;;;;;;8.32;5.20;;;;;;;;;;5051802;28;20132;-73
2022/05/19 10:03:08;;;;;;;10.43;6.55;;;;;;;;;;5063145;28;20159;-75
2022/05/19 10:05:42;;;;;;;11.63;5.97;;;;;;;;;;5063757;28;20053;-75
2022/05/19 10:08:20;;;;;;;8.27;5.60;;;;;;;;;;5064899;28;20056;-75
2022/05/19 10:11:17;;;;;;;8.82;5.72;;;;;;;;;;5059365;28;20132;-74
2022/05/19 10:13:49;;;;;;;7.70;5.55;;;;;;;;;;5030556;28;20867;-75
2022/05/19 10:16:24;;;;;;;9.05;6.43;;;;;;;;;;5062753;28;20136;-75
2022/05/19 10:19:09;;;;;;;9.13;6.15;;;;;;;;;;5045348;28;20056;-74
2022/05/19 10:21:44;;;;;;;10.43;6.45;;;;;;;;;;5053973;28;20080;-75
2022/05/19 10:24:26;;;;;;;9.70;6.85;;;;;;;;;;5055380;28;20695;-79
2022/05/19 10:31:03;;;;;;;9.32;6.70;;;;;;;;;;5055021;28;20841;-74
2022/05/19 10:32:39;;;;;;;10.75;6.95;;;;;;;;;;5057141;28;20053;-75
2022/05/19 10:35:06;;;;;;;9.25;6.75;;;;;;;;;;5051015;28;20052;-73
2022/05/19 10:37:42;;;;;;;12.35;7.97;;;;;;;;;;5055043;28;20548;-74
2022/05/19 10:40:23;;;;;;;8.95;7.35;;;;;;;;;;5054825;28;20064;-73
2022/05/19 10:43:13;;;;;;;12.60;8.50;;;;;;;;;;5051490;28;20140;-74
2022/05/19 10:45:44;;;;;;;10.98;8.15;;;;;;;;;;5053684;28;20103;-73
2022/05/19 10:48:15;;;;;;;10.50;7.78;;;;;;;;;;5058559;28;20084;-73
2022/05/19 10:51:01;;;;;;;13.00;8.23;;;;;;;;;;5060396;28;20160;-75
2022/05/19 10:53:31;;;;;;;10.15;8.00;;;;;;;;;;5029126;28;20136;-73
2022/05/19 10:56:00;;;;;;;10.43;8.23;;;;;;;;;;5061529;28;20192;-75
2022/05/19 10:58:33;;;;;;;9.77;8.57;;;;;;;;;;5052055;28;20139;-75
2022/05/19 11:01:05;;;;;;;12.48;8.90;;;;;;;;;;5060933;28;20063;-75
2022/05/19 11:03:31;;;;;;;11.93;9.50;;;;;;;;;;5060886;28;21221;-74
2022/05/19 11:06:17;;;;;;;11.48;8.70;;;;;;;;;;5062484;28;20055;-74
2022/05/19 11:09:02;;;;;;;11.20;8.85;;;;;;;;;;5059059;28;20073;-75
2022/05/19 11:11:28;;;;;;;11.50;8.35;;;;;;;;;;5062124;28;20056;-75
2022/05/19 11:14:13;;;;;;;10.75;8.70;;;;;;;;;;5056973;28;20050;-74
2022/05/19 11:16:41;;;;;;;11.63;8.52;;;;;;;;;;5062005;28;21971;-76
2022/05/19 11:19:26;;;;;;;11.30;8.68;;;;;;;;;;5061946;28;20470;-75
2022/05/19 11:22:00;;;;;;;9.88;8.43;;;;;;;;;;5061518;28;20057;-74
2022/05/19 11:24:29;;;;;;;12.93;9.00;;;;;;;;;;5062882;28;20057;-76
2022/05/19 11:26:58;;;;;;;11.13;8.60;;;;;;;;;;5061517;28;20071;-74
2022/05/19 11:29:43;;;;;;;12.25;8.88;;;;;;;;;;5062730;28;20055;-75
2022/05/19 11:32:12;;;;;;;12.18;9.30;;;;;;;;;;5051405;28;20149;-74
2022/05/19 11:34:49;;;;;;;13.80;9.43;;;;;;;;;;5060997;28;20508;-76
2022/05/19 11:37:34;;;;;;;12.18;9.85;;;;;;;;;;5054918;28;20124;-74
2022/05/19 11:40:21;;;;;;;15.10;10.48;;;;;;;;;;5064230;28;20726;-75
2022/05/19 11:42:55;;;;;;;14.32;9.75;;;;;;;;;;5051837;28;20053;-75
2022/05/19 11:45:22;;;;;;;14.90;9.70;;;;;;;;;;5066358;28;20553;-74
2022/05/19 11:56:53;;;;;;;14.70;10.77;;;;;;;;;;5059679;28;20049;-74
2022/05/19 11:59:19;;;;;;;16.92;10.82;;;;;;;;;;5062265;28;20063;-74
2022/05/19 12:01:50;;;;;;;13.65;6.70;;;;;;;;;;5060129;28;20060;-73
2022/05/19 12:04:24;;;;;;;19.95;4.50;;;;;;;;;;5057330;28;20533;-73
2022/05/19 12:07:06;;;;;;;6.97;2.47;;;;;;;;;;5060162;28;20091;-73
2022/05/19 12:09:41;;;;;;;16.38;2.85;;;;;;;;;;5056916;28;20575;-71
2022/05/19 12:12:22;;;;;;;13.25;2.65;;;;;;;;;;5061696;28;20195;-72
2022/05/19 12:15:01;;;;;;;12.77;2.47;;;;;;;;;;5064017;28;20163;-73
2022/05/19 12:17:28;;;;;;;9.00;2.20;;;;;;;;;;5064112;28;20544;-72
2022/05/19 12:19:57;;;;;;;7.05;2.47;;;;;;;;;;5061422;28;20944;-72
2022/05/19 12:22:24;;;;;;;12.35;2.67;;;;;;;;;;5062046;28;20270;-73
2022/05/19 12:24:53;;;;;;;7.85;2.65;;;;;;;;;;5065509;28;20140;-74
2022/05/19 12:27:24;;;;;;;7.97;3.03;;;;;;;;;;5062917;28;20059;-76
2022/05/19 12:29:57;;;;;;;9.18;3.72;;;;;;;;;;5063664;28;20055;-73
2022/05/19 12:32:29;;;;;;;8.80;4.10;;;;;;;;;;5063018;28;20584;-76
2022/05/19 12:34:59;;;;;;;12.15;4.68;;;;;;;;;;5063214;28;20057;-73
2022/05/19 12:37:45;;;;;;;10.40;4.80;;;;;;;;;;5057159;28;20108;-75
2022/05/19 12:40:20;;;;;;;7.70;4.07;;;;;;;;;;5068694;28;20048;-76
2022/05/19 12:42:48;;;;;;;9.23;5.00;;;;;;;;;;5063138;28;20075;-74
2022/05/19 12:45:16;;;;;;;10.85;5.13;;;;;;;;;;5062169;28;20049;-74
2022/05/19 12:48:21;;;;;;;10.32;4.75;;;;;;;;;;5063839;28;20048;-74
2022/05/19 12:50:51;;;;;;;11.85;5.47;;;;;;;;;;5058374;28;20505;-74
2022/05/19 12:53:23;;;;;;;8.88;4.95;;;;;;;;;;5065647;28;20056;-74
2022/05/19 12:55:51;;;;;;;10.98;5.50;;;;;;;;;;5062292;28;20143;-74
2022/05/19 12:58:33;;;;;;;9.70;5.45;;;;;;;;;;5060622;28;20045;-73
2022/05/19 13:01:15;;;;;;;11.82;6.00;;;;;;;;;;5077141;28;20057;-73
2022/05/19 13:03:42;;;;;;;9.70;6.25;;;;;;;;;;5077189;28;21339;-76
2022/05/19 13:06:11;;;;;;;10.48;6.30;;;;;;;;;;5073665;28;20140;-75
2022/05/19 13:08:43;;;;;;;9.98;6.45;;;;;;;;;;5063180;28;20550;-74
2022/05/19 13:11:10;;;;;;;8.85;6.18;;;;;;;;;;5060881;28;20059;-75
2022/05/19 13:13:44;;;;;;;12.43;7.03;;;;;;;;;;5059146;28;20057;-73
2022/05/19 13:16:28;;;;;;;13.23;7.20;;;;;;;;;;5060382;28;20107;-74
2022/05/19 13:19:00;;;;;;;12.70;8.18;;;;;;;;;;5078119;28;20053;-74
2022/05/19 13:21:26;;;;;;;9.98;7.00;;;;;;;;;;5070750;28;20195;-73
2022/05/19 13:23:53;;;;;;;11.73;6.80;;;;;;;;;;5064185;28;20053;-74
2022/05/19 13:26:19;;;;;;;13.50;7.82;;;;;;;;;;5063575;28;20422;-74
2022/05/19 13:31:50;;;;;;;14.65;7.57;;;;;;;;;;5057277;28;20049;-75
2022/05/19 13:34:17;;;;;;;10.43;6.80;;;;;;;;;;5058897;28;20049;-73
2022/05/19 13:36:50;;;;;;;12.57;7.38;;;;;;;;;;5062028;28;20657;-73
2022/05/19 13:39:17;;;;;;;11.52;8.38;;;;;;;;;;5062047;28;20061;-74
2022/05/19 13:41:45;;;;;;;9.98;6.68;;;;;;;;;;5056904;28;20177;-75
2022/05/19 13:44:13;;;;;;;12.65;7.32;;;;;;;;;;5058400;28;20135;-74
2022/05/19 13:46:39;;;;;;;10.55;7.03;;;;;;;;;;5058097;28;20052;-73
2022/05/19 13:49:07;;;;;;;9.02;7.15;;;;;;;;;;5061507;28;20519;-73
2022/05/19 13:51:39;;;;;;;8.70;6.65;;;;;;;;;;5060600;28;20059;-74
2022/05/19 13:54:07;;;;;;;12.68;6.82;;;;;;;;;;5062431;28;20111;-73
2022/05/19 13:56:38;;;;;;;12.95;7.22;;;;;;;;;;5062039;28;20057;-73
2022/05/19 13:59:05;;;;;;;9.20;6.50;;;;;;;;;;5057748;28;20144;-75
2022/05/19 14:01:36;;;;;;;11.98;6.65;;;;;;;;;;5066916;28;20049;-74
2022/05/19 14:04:07;;;;;;;9.60;6.55;;;;;;;;;;5057801;28;20056;-73
2022/05/19 14:06:34;;;;;;;9.02;6.30;;;;;;;;;;5063790;28;20056;-73
2022/05/19 14:09:02;;;;;;;9.23;6.55;;;;;;;;;;5063528;28;20132;-73
2022/05/19 14:11:28;;;;;;;9.55;6.38;;;;;;;;;;5064201;28;20075;-73
2022/05/19 14:13:55;;;;;;;10.05;6.90;;;;;;;;;;5058337;28;20056;-73
2022/05/19 14:16:43;;;;;;;8.38;6.75;;;;;;;;;;5053937;28;20052;-74
2022/05/19 14:19:31;;;;;;;12.05;7.20;;;;;;;;;;5058627;28;20510;-73
2022/05/19 14:21:58;;;;;;;8.23;6.00;;;;;;;;;;5058879;28;20045;-73
2022/05/19 14:24:24;;;;;;;10.60;6.90;;;;;;;;;;5061503;28;20522;-73
2022/05/19 14:26:52;;;;;;;8.45;6.20;;;;;;;;;;5061073;28;20057;-73
2022/05/19 14:29:23;;;;;;;10.75;6.85;;;;;;;;;;5062324;28;20140;-72
2022/05/19 14:31:49;;;;;;;8.48;6.22;;;;;;;;;;5059340;28;20059;-73
2022/05/19 14:34:24;;;;;;;8.25;5.40;;;;;;;;;;5062393;28;20056;-74
2022/05/19 14:37:06;;;;;;;6.82;5.10;;;;;;;;;;5068144;28;20056;-75
2022/05/19 14:39:44;;;;;;;7.03;4.82;;;;;;;;;;5053087;28;20053;-73
2022/05/19 14:45:09;;;;;;;10.07;4.75;;;;;;;;;;5058801;28;20056;-75
2022/05/19 14:47:41;;;;;;;8.30;5.18;;;;;;;;;;5048260;28;20540;-74
2022/05/19 14:50:10;;;;;;;8.23;5.30;;;;;;;;;;5059275;28;20053;-73
2022/05/19 14:52:41;;;;;;;8.60;5.53;;;;;;;;;;5061226;28;20053;-74
2022/05/19 14:55:10;;;;;;;9.30;4.70;;;;;;;;;;5056444;28;20049;-73
2022/05/19 14:57:36;;;;;;;8.45;4.97;;;;;;;;;;5063921;28;20056;-73
2022/05/19 15:00:04;;;;;;;9.23;5.97;;;;;;;;;;5061329;28;20069;-73
2022/05/19 15:02:31;;;;;;;8.02;5.57;;;;;;;;;;5062308;28;20049;-73
2022/05/19 15:04:57;;;;;;;7.22;5.07;;;;;;;;;;5059537;28;20956;-73
2022/05/19 15:07:23;;;;;;;10.50;5.63;;;;;;;;;;5060526;28;20061;-74
2022/05/19 15:09:50;;;;;;;8.55;5.88;;;;;;;;;;5061293;28;20140;-76
2022/05/19 15:12:16;;;;;;;10.18;6.05;;;;;;;;;;5056289;28;20500;-73
2022/05/19 15:14:43;;;;;;;7.40;4.55;;;;;;;;;;5063908;28;20832;-73
2022/05/19 15:17:11;;;;;;;7.55;4.05;;;;;;;;;;5063431;28;20217;-73